sensor_id;sensor_type;location;lat;lon;timestamp;pressure;altitude;pressure_sealevel;temperature;humidity
1207;BME280;593;53.184;8.216;2022-09-27T00:02:10;98874.59;;;14.23;100.00
1207;BME280;593;53.184;8.216;2022-09-27T00:04:35;98882.81;;;14.23;100.00
1207;BME280;593;53.184;8.216;2022-09-27T00:07:00;98880.44;;;14.22;100.00
1207;BME280;593;53.184;8.216;2022-09-27T00:09:26;98875.22;;;14.17;100.00
1207;BME280;593;53.184;8.216;2022-09-27T00:11:52;98878.75;;;14.17;100.00
1207;BME280;593;53.184;8.216;2022-09-27T00:14:17;98881.81;;;14.15;100.00
1207;BME280;593;53.184;8.216;2022-09-27T00:16:43;98873.59;;;14.15;100.00
1207;BME280;593;53.184;8.216;2022-09-27T00:19:17;98879.56;;;14.18;100.00
1207;BME280;593;53.184;8.216;2022-09-27T00:21:45;98884.22;;;14.17;100.00
1207;BME280;593;53.184;8.216;2022-09-27T00:24:12;98886.16;;;14.17;100.00
1207;BME280;593;53.184;8.216;2022-09-27T00:26:37;98877.50;;;14.14;100.00
1207;BME280;593;53.184;8.216;2022-09-27T00:29:03;98876.72;;;14.14;100.00
1207;BME280;593;53.184;8.216;2022-09-27T00:31:29;98875.09;;;14.13;100.00
1207;BME280;593;53.184;8.216;2022-09-27T00:33:57;98876.72;;;14.14;100.00
1207;BME280;593;53.184;8.216;2022-09-27T00:36:24;98875.91;;;14.13;100.00
1207;BME280;593;53.184;8.216;2022-09-27T00:38:50;98881.72;;;14.12;100.00
1207;BME280;593;53.184;8.216;2022-09-27T00:41:17;98882.53;;;14.12;100.00
1207;BME280;593;53.184;8.216;2022-09-27T00:43:49;98883.31;;;14.13;100.00
1207;BME280;593;53.184;8.216;2022-09-27T00:46:30;98879.00;;;14.12;100.00
1207;BME280;593;53.184;8.216;2022-09-27T00:49:03;98875.34;;;14.08;100.00
1207;BME280;593;53.184;8.216;2022-09-27T00:51:31;98869.81;;;14.04;100.00
1207;BME280;593;53.184;8.216;2022-09-27T00:53:59;98877.75;;;14.09;100.00
1207;BME280;593;53.184;8.216;2022-09-27T00:56:28;98872.28;;;14.09;100.00
1207;BME280;593;53.184;8.216;2022-09-27T00:59:11;98883.22;;;14.09;100.00
1207;BME280;593;53.184;8.216;2022-09-27T01:01:38;98875.03;;;14.09;100.00
1207;BME280;593;53.184;8.216;2022-09-27T01:04:13;98878.56;;;14.10;100.00
1207;BME280;593;53.184;8.216;2022-09-27T01:06:39;98876.97;;;14.09;100.00
1207;BME280;593;53.184;8.216;2022-09-27T01:09:06;98885.16;;;14.09;100.00
1207;BME280;593;53.184;8.216;2022-09-27T01:11:42;98883.91;;;14.06;100.00
1207;BME280;593;53.184;8.216;2022-09-27T01:14:27;98882.69;;;14.04;100.00
1207;BME280;593;53.184;8.216;2022-09-27T01:17:03;98875.97;;;14.01;100.00
1207;BME280;593;53.184;8.216;2022-09-27T01:19:56;98884.16;;;14.01;100.00
1207;BME280;593;53.184;8.216;2022-09-27T01:25:02;98880.63;;;14.01;100.00
1207;BME280;593;53.184;8.216;2022-09-27T01:30:46;98883.38;;;14.01;100.00
1207;BME280;593;53.184;8.216;2022-09-27T01:33:35;98887.25;;;14.00;100.00
1207;BME280;593;53.184;8.216;2022-09-27T01:36:42;98876.22;;;13.96;100.00
1207;BME280;593;53.184;8.216;2022-09-27T01:44:36;98885.09;;;13.93;100.00
1207;BME280;593;53.184;8.216;2022-09-27T01:47:20;98885.78;;;13.90;100.00
1207;BME280;593;53.184;8.216;2022-09-27T01:49:53;98869.56;;;13.82;100.00
1207;BME280;593;53.184;8.216;2022-09-27T01:52:24;98878.31;;;13.87;100.00
1207;BME280;593;53.184;8.216;2022-09-27T01:54:56;98879.09;;;13.88;100.00
1207;BME280;593;53.184;8.216;2022-09-27T01:57:26;98872.84;;;13.87;100.00
1207;BME280;593;53.184;8.216;2022-09-27T02:00:01;98869.66;;;13.85;100.00
1207;BME280;593;53.184;8.216;2022-09-27T02:02:28;98882.53;;;13.85;100.00
1207;BME280;593;53.184;8.216;2022-09-27T02:04:57;98883.66;;;13.84;100.00
1207;BME280;593;53.184;8.216;2022-09-27T02:07:32;98876.97;;;13.81;100.00
1207;BME280;593;53.184;8.216;2022-09-27T02:10:08;98875.84;;;13.82;100.00
1207;BME280;593;53.184;8.216;2022-09-27T02:12:41;98878.09;;;13.80;100.00
1207;BME280;593;53.184;8.216;2022-09-27T02:15:12;98869.91;;;13.80;100.00
1207;BME280;593;53.184;8.216;2022-09-27T02:17:58;98872.63;;;13.80;100.00
1207;BME280;593;53.184;8.216;2022-09-27T02:20:34;98876.53;;;13.79;100.00
1207;BME280;593;53.184;8.216;2022-09-27T02:26:02;98868.47;;;13.71;100.00
1207;BME280;593;53.184;8.216;2022-09-27T02:31:06;98871.53;;;13.69;100.00
1207;BME280;593;53.184;8.216;2022-09-27T02:33:44;98884.16;;;13.74;100.00
1207;BME280;593;53.184;8.216;2022-09-27T02:36:10;98887.25;;;13.72;100.00
1207;BME280;593;53.184;8.216;2022-09-27T02:38:36;98879.06;;;13.72;100.00
1207;BME280;593;53.184;8.216;2022-09-27T02:41:02;98876.44;;;13.64;100.00
1207;BME280;593;53.184;8.216;2022-09-27T02:43:30;98887.59;;;13.71;100.00
1207;BME280;593;53.184;8.216;2022-09-27T02:46:10;98879.38;;;13.71;100.00
1207;BME280;593;53.184;8.216;2022-09-27T02:48:46;98885.22;;;13.69;100.00
1207;BME280;593;53.184;8.216;2022-09-27T02:51:39;98877.00;;;13.69;100.00
1207;BME280;593;53.184;8.216;2022-09-27T02:54:09;98880.44;;;13.66;100.00
1207;BME280;593;53.184;8.216;2022-09-27T03:02:46;98873.72;;;13.64;100.00
1207;BME280;593;53.184;8.216;2022-09-27T03:05:20;98864.72;;;13.63;100.00
1207;BME280;593;53.184;8.216;2022-09-27T03:07:48;98867.47;;;13.63;100.00
1207;BME280;593;53.184;8.216;2022-09-27T03:10:22;98868.25;;;13.64;100.00
1207;BME280;593;53.184;8.216;2022-09-27T03:12:48;98863.16;;;13.62;100.00
1207;BME280;593;53.184;8.216;2022-09-27T03:15:14;98864.72;;;13.63;100.00
1207;BME280;593;53.184;8.216;2022-09-27T03:17:40;98862.34;;;13.62;100.00
1207;BME280;593;53.184;8.216;2022-09-27T03:20:05;98864.72;;;13.63;100.00
1207;BME280;593;53.184;8.216;2022-09-27T03:22:31;98859.50;;;13.58;100.00
1207;BME280;593;53.184;8.216;2022-09-27T03:24:56;98874.41;;;13.61;100.00
1207;BME280;593;53.184;8.216;2022-09-27T03:27:22;98861.56;;;13.61;100.00
1207;BME280;593;53.184;8.216;2022-09-27T03:29:48;98869.75;;;13.61;100.00
1207;BME280;593;53.184;8.216;2022-09-27T03:32:13;98870.53;;;13.62;100.00
1207;BME280;593;53.184;8.216;2022-09-27T03:34:38;98848.69;;;13.62;100.00
1207;BME280;593;53.184;8.216;2022-09-27T03:37:04;98860.41;;;13.62;100.00
1207;BME280;593;53.184;8.216;2022-09-27T03:39:29;98861.22;;;13.63;100.00
1207;BME280;593;53.184;8.216;2022-09-27T03:41:55;98860.75;;;13.61;100.00
1207;BME280;593;53.184;8.216;2022-09-27T03:44:20;98856.09;;;13.61;100.00
1207;BME280;593;53.184;8.216;2022-09-27T03:46:46;98867.00;;;13.61;100.00
1207;BME280;593;53.184;8.216;2022-09-27T03:49:11;98859.97;;;13.60;100.00
1207;BME280;593;53.184;8.216;2022-09-27T03:51:36;98854.75;;;13.55;100.00
1207;BME280;593;53.184;8.216;2022-09-27T03:54:02;98861.09;;;13.59;100.00
1207;BME280;593;53.184;8.216;2022-09-27T03:56:27;98859.97;;;13.60;100.00
1207;BME280;593;53.184;8.216;2022-09-27T03:58:53;98858.38;;;13.59;100.00
1207;BME280;593;53.184;8.216;2022-09-27T04:01:18;98856.78;;;13.58;100.00
1207;BME280;593;53.184;8.216;2022-09-27T04:03:44;98864.53;;;13.56;100.00
1207;BME280;593;53.184;8.216;2022-09-27T04:06:10;98863.41;;;13.57;100.00
1207;BME280;593;53.184;8.216;2022-09-27T04:08:36;98866.13;;;13.57;100.00
1207;BME280;593;53.184;8.216;2022-09-27T04:11:01;98864.53;;;13.56;100.00
1207;BME280;593;53.184;8.216;2022-09-27T04:13:28;98863.41;;;13.57;100.00
1207;BME280;593;53.184;8.216;2022-09-27T04:15:53;98858.19;;;13.52;100.00
1207;BME280;593;53.184;8.216;2022-09-27T04:18:18;98866.44;;;13.56;100.00
1207;BME280;593;53.184;8.216;2022-09-27T04:20:44;98873.88;;;13.55;100.00
1207;BME280;593;53.184;8.216;2022-09-27T04:23:09;98861.00;;;13.56;100.00
1207;BME280;593;53.184;8.216;2022-09-27T04:25:35;98863.28;;;13.54;100.00
1207;BME280;593;53.184;8.216;2022-09-27T04:28:00;98866.00;;;13.54;100.00
1207;BME280;593;53.184;8.216;2022-09-27T04:30:27;98865.13;;;13.49;100.00
1207;BME280;593;53.184;8.216;2022-09-27T04:32:52;98874.91;;;13.50;100.00
1207;BME280;593;53.184;8.216;2022-09-27T04:35:18;98866.16;;;13.45;100.00
1207;BME280;593;53.184;8.216;2022-09-27T04:38:02;98877.19;;;13.48;100.00
1207;BME280;593;53.184;8.216;2022-09-27T04:40:27;98869.66;;;13.45;100.00
1207;BME280;593;53.184;8.216;2022-09-27T04:42:53;98872.06;;;13.47;100.00
1207;BME280;593;53.184;8.216;2022-09-27T04:45:18;98875.59;;;13.47;100.00
1207;BME280;593;53.184;8.216;2022-09-27T04:47:46;98880.25;;;13.47;100.00
1207;BME280;593;53.184;8.216;2022-09-27T04:50:13;98873.19;;;13.46;100.00
1207;BME280;593;53.184;8.216;2022-09-27T04:52:39;98870.47;;;13.46;100.00
1207;BME280;593;53.184;8.216;2022-09-27T04:55:05;98875.94;;;13.46;100.00
1207;BME280;593;53.184;8.216;2022-09-27T04:57:31;98881.31;;;13.42;100.00
1207;BME280;593;53.184;8.216;2022-09-27T04:59:56;98879.34;;;13.43;100.00
1207;BME280;593;53.184;8.216;2022-09-27T05:02:25;98872.19;;;13.38;100.00
1207;BME280;593;53.184;8.216;2022-09-27T05:04:51;98882.06;;;13.43;100.00
1207;BME280;593;53.184;8.216;2022-09-27T05:07:17;98884.38;;;13.41;100.00
1207;BME280;593;53.184;8.216;2022-09-27T05:09:42;98887.09;;;13.41;100.00
1207;BME280;593;53.184;8.216;2022-09-27T05:12:07;98887.44;;;13.39;100.00
1207;BME280;593;53.184;8.216;2022-09-27T05:14:33;98892.91;;;13.39;100.00
1207;BME280;593;53.184;8.216;2022-09-27T05:16:59;98886.66;;;13.39;100.00
1207;BME280;593;53.184;8.216;2022-09-27T05:19:24;98901.91;;;13.40;100.00
1207;BME280;593;53.184;8.216;2022-09-27T05:21:49;98901.44;;;13.38;100.00
1207;BME280;593;53.184;8.216;2022-09-27T05:24:15;98892.78;;;13.36;100.00
1207;BME280;593;53.184;8.216;2022-09-27T05:26:40;98894.41;;;13.37;100.00
1207;BME280;593;53.184;8.216;2022-09-27T05:29:06;98894.72;;;13.35;100.00
1207;BME280;593;53.184;8.216;2022-09-27T05:31:32;98895.53;;;13.36;100.00
1207;BME280;593;53.184;8.216;2022-09-27T05:33:57;98902.91;;;13.35;100.00
1207;BME280;593;53.184;8.216;2022-09-27T05:36:23;98904.06;;;13.34;100.00
1207;BME280;593;53.184;8.216;2022-09-27T05:38:48;98898.16;;;13.32;100.00
1207;BME280;593;53.184;8.216;2022-09-27T05:41:14;98904.41;;;13.33;100.00
1207;BME280;593;53.184;8.216;2022-09-27T05:43:40;98919.22;;;13.32;100.00
1207;BME280;593;53.184;8.216;2022-09-27T05:46:05;98916.03;;;13.30;100.00
1207;BME280;593;53.184;8.216;2022-09-27T05:48:31;98921.13;;;13.31;100.00
1207;BME280;593;53.184;8.216;2022-09-27T05:50:56;98921.50;;;13.30;100.00
1207;BME280;593;53.184;8.216;2022-09-27T05:53:22;98923.41;;;13.29;100.00
1207;BME280;593;53.184;8.216;2022-09-27T05:55:47;98927.72;;;13.30;100.00
1207;BME280;593;53.184;8.216;2022-09-27T05:58:14;98923.06;;;13.31;100.00
1207;BME280;593;53.184;8.216;2022-09-27T06:00:41;98930.81;;;13.29;100.00
1207;BME280;593;53.184;8.216;2022-09-27T06:03:07;98928.53;;;13.31;100.00
1207;BME280;593;53.184;8.216;2022-09-27T06:05:36;98928.09;;;13.29;100.00
1207;BME280;593;53.184;8.216;2022-09-27T06:08:05;98912.59;;;13.21;100.00
1207;BME280;593;53.184;8.216;2022-09-27T06:10:32;98930.81;;;13.29;100.00
1207;BME280;593;53.184;8.216;2022-09-27T06:13:12;98925.34;;;13.29;100.00
1207;BME280;593;53.184;8.216;2022-09-27T06:15:41;98924.91;;;13.27;100.00
1207;BME280;593;53.184;8.216;2022-09-27T06:18:09;98926.72;;;13.23;100.00
1207;BME280;593;53.184;8.216;2022-09-27T06:20:35;98928.75;;;13.26;100.00
1207;BME280;593;53.184;8.216;2022-09-27T06:23:06;98933.09;;;13.27;100.00
1207;BME280;593;53.184;8.216;2022-09-27T06:25:34;98930.16;;;13.20;100.00
1207;BME280;593;53.184;8.216;2022-09-27T06:27:59;98924.91;;;13.27;100.00
1207;BME280;593;53.184;8.216;2022-09-27T06:30:25;98935.81;;;13.27;100.00
1207;BME280;593;53.184;8.216;2022-09-27T06:33:11;98933.09;;;13.27;100.00
1207;BME280;593;53.184;8.216;2022-09-27T06:35:38;98934.66;;;13.28;100.00
1207;BME280;593;53.184;8.216;2022-09-27T06:38:05;98936.63;;;13.27;100.00
1207;BME280;593;53.184;8.216;2022-09-27T06:40:34;98934.44;;;13.21;100.00
1207;BME280;593;53.184;8.216;2022-09-27T06:45:28;98948.31;;;13.28;100.00
1207;BME280;593;53.184;8.216;2022-09-27T06:47:55;98932.88;;;13.20;100.00
1207;BME280;593;53.184;8.216;2022-09-27T06:50:21;98940.03;;;13.24;100.00
1207;BME280;593;53.184;8.216;2022-09-27T06:52:47;98943.22;;;13.26;100.00
1207;BME280;593;53.184;8.216;2022-09-27T06:55:14;98949.13;;;13.28;100.00
1207;BME280;593;53.184;8.216;2022-09-27T06:57:39;98946.06;;;13.30;100.00
1207;BME280;593;53.184;8.216;2022-09-27T07:00:24;98946.75;;;13.27;100.00
1207;BME280;593;53.184;8.216;2022-09-27T07:02:51;98962.09;;;13.31;100.00
1207;BME280;593;53.184;8.216;2022-09-27T07:05:18;98965.63;;;13.32;100.00
1207;BME280;593;53.184;8.216;2022-09-27T07:07:44;98971.53;;;13.34;100.00
1207;BME280;593;53.184;8.216;2022-09-27T07:10:12;98976.19;;;13.33;100.00
1207;BME280;593;53.184;8.216;2022-09-27T07:12:37;98968.44;;;13.35;100.00
1207;BME280;593;53.184;8.216;2022-09-27T07:15:04;98966.53;;;13.36;100.00
1207;BME280;593;53.184;8.216;2022-09-27T07:17:29;98979.06;;;13.37;100.00
1207;BME280;593;53.184;8.216;2022-09-27T07:19:55;98971.31;;;13.39;100.00
1207;BME280;593;53.184;8.216;2022-09-27T07:22:21;98984.63;;;13.40;100.00
1207;BME280;593;53.184;8.216;2022-09-27T07:24:46;98985.09;;;13.42;100.00
1207;BME280;593;53.184;8.216;2022-09-27T07:27:12;98989.84;;;13.45;100.00
1207;BME280;593;53.184;8.216;2022-09-27T07:29:38;98984.75;;;13.44;100.00
1207;BME280;593;53.184;8.216;2022-09-27T07:32:03;98979.28;;;13.44;100.00
1207;BME280;593;53.184;8.216;2022-09-27T07:34:29;98983.38;;;13.50;100.00
1207;BME280;593;53.184;8.216;2022-09-27T07:37:01;98990.88;;;13.53;100.00
1207;BME280;593;53.184;8.216;2022-09-27T07:39:30;98990.88;;;13.53;100.00
1207;BME280;593;53.184;8.216;2022-09-27T07:41:55;98992.91;;;13.56;100.00
1207;BME280;593;53.184;8.216;2022-09-27T07:44:20;98993.38;;;13.58;100.00
1207;BME280;593;53.184;8.216;2022-09-27T07:46:46;98995.41;;;13.61;100.00
1207;BME280;593;53.184;8.216;2022-09-27T07:49:11;98990.63;;;13.58;100.00
1207;BME280;593;53.184;8.216;2022-09-27T07:51:37;99004.53;;;13.65;100.00
1207;BME280;593;53.184;8.216;2022-09-27T07:54:02;99010.09;;;13.69;100.00
1207;BME280;593;53.184;8.216;2022-09-27T07:56:28;99000.66;;;13.66;100.00
1207;BME280;593;53.184;8.216;2022-09-27T07:58:53;99016.47;;;13.73;100.00
1207;BME280;593;53.184;8.216;2022-09-27T08:01:19;99004.75;;;13.72;100.00
1207;BME280;593;53.184;8.216;2022-09-27T08:03:45;99006.81;;;13.75;100.00
1207;BME280;593;53.184;8.216;2022-09-27T08:06:10;99022.03;;;13.76;100.00
1207;BME280;593;53.184;8.216;2022-09-27T08:08:36;99016.69;;;13.80;100.00
1207;BME280;593;53.184;8.216;2022-09-27T08:11:12;99028.88;;;13.82;100.00
1207;BME280;593;53.184;8.216;2022-09-27T08:13:40;99020.69;;;13.82;100.00
1207;BME280;593;53.184;8.216;2022-09-27T08:16:05;99021.44;;;13.83;100.00
1207;BME280;593;53.184;8.216;2022-09-27T08:18:31;99021.81;;;13.81;100.00
1207;BME280;593;53.184;8.216;2022-09-27T08:20:57;99023.84;;;13.84;100.00
1207;BME280;593;53.184;8.216;2022-09-27T08:23:23;99023.84;;;13.84;100.00
1207;BME280;593;53.184;8.216;2022-09-27T08:25:52;99026.22;;;13.86;100.00
1207;BME280;593;53.184;8.216;2022-09-27T08:28:18;99036.84;;;13.87;100.00
1207;BME280;593;53.184;8.216;2022-09-27T08:30:43;99039.56;;;13.87;100.00
1207;BME280;593;53.184;8.216;2022-09-27T08:33:09;99045.03;;;13.87;100.00
1207;BME280;593;53.184;8.216;2022-09-27T08:35:34;99050.50;;;13.87;100.00
1207;BME280;593;53.184;8.216;2022-09-27T08:38:01;99049.34;;;13.88;100.00
1207;BME280;593;53.184;8.216;2022-09-27T08:40:56;99046.63;;;13.88;100.00
1207;BME280;593;53.184;8.216;2022-09-27T08:49:35;99058.72;;;13.87;100.00
1207;BME280;593;53.184;8.216;2022-09-27T08:52:07;99057.09;;;13.86;100.00
1207;BME280;593;53.184;8.216;2022-09-27T08:54:37;99064.19;;;13.87;100.00
1207;BME280;593;53.184;8.216;2022-09-27T08:57:09;99077.84;;;13.87;100.00
1207;BME280;593;53.184;8.216;2022-09-27T08:59:40;99069.88;;;13.82;100.00
1207;BME280;593;53.184;8.216;2022-09-27T09:02:21;99070.75;;;13.86;100.00
1207;BME280;593;53.184;8.216;2022-09-27T09:04:53;99070.75;;;13.86;100.00
1207;BME280;593;53.184;8.216;2022-09-27T09:27:34;99097.06;;;13.91;100.00
1207;BME280;593;53.184;8.216;2022-09-27T09:30:24;99103.69;;;13.90;100.00
1207;BME280;593;53.184;8.216;2022-09-27T09:38:36;99097.41;;;13.89;100.00
1207;BME280;593;53.184;8.216;2022-09-27T09:41:09;99100.25;;;13.93;100.00
1207;BME280;593;53.184;8.216;2022-09-27T09:46:33;99112.00;;;13.93;100.00
1207;BME280;593;53.184;8.216;2022-09-27T09:49:05;99106.53;;;13.93;100.00
1207;BME280;593;53.184;8.216;2022-09-27T09:51:39;99099.00;;;13.90;100.00
1207;BME280;593;53.184;8.216;2022-09-27T09:56:42;99105.38;;;13.94;100.00
1207;BME280;593;53.184;8.216;2022-09-27T09:59:15;99105.38;;;13.94;100.00
1207;BME280;593;53.184;8.216;2022-09-27T10:01:43;99101.50;;;13.95;100.00
1207;BME280;593;53.184;8.216;2022-09-27T10:04:16;99103.91;;;13.97;100.00
1207;BME280;593;53.184;8.216;2022-09-27T10:06:42;99091.28;;;13.92;100.00
1207;BME280;593;53.184;8.216;2022-09-27T10:09:15;99100.38;;;13.96;100.00
1207;BME280;593;53.184;8.216;2022-09-27T10:11:44;99104.22;;;13.95;100.00
1207;BME280;593;53.184;8.216;2022-09-27T10:14:11;99101.97;;;13.97;100.00
1207;BME280;593;53.184;8.216;2022-09-27T10:16:39;99112.56;;;13.99;100.00
1207;BME280;593;53.184;8.216;2022-09-27T10:19:08;99101.97;;;13.97;100.00
1207;BME280;593;53.184;8.216;2022-09-27T10:21:37;99102.44;;;13.99;100.00
1207;BME280;593;53.184;8.216;2022-09-27T10:24:10;99104.00;;;14.00;100.00
1207;BME280;593;53.184;8.216;2022-09-27T10:26:37;99108.34;;;14.01;100.00
1207;BME280;593;53.184;8.216;2022-09-27T10:29:20;99105.59;;;14.01;100.00
1207;BME280;593;53.184;8.216;2022-09-27T10:31:47;99104.13;;;14.04;100.00
1207;BME280;593;53.184;8.216;2022-09-27T10:34:24;99107.66;;;14.04;100.00
1207;BME280;593;53.184;8.216;2022-09-27T10:39:27;99107.31;;;14.06;100.00
1207;BME280;593;53.184;8.216;2022-09-27T10:41:52;99108.91;;;14.07;100.00
1207;BME280;593;53.184;8.216;2022-09-27T10:44:22;99106.97;;;14.07;100.00
1207;BME280;593;53.184;8.216;2022-09-27T10:46:50;99102.75;;;14.10;100.00
1207;BME280;593;53.184;8.216;2022-09-27T10:49:25;99100.81;;;14.10;100.00
1207;BME280;593;53.184;8.216;2022-09-27T10:54:36;99100.13;;;14.13;100.00
1207;BME280;593;53.184;8.216;2022-09-27T10:59:39;99093.97;;;14.17;100.00
1207;BME280;593;53.184;8.216;2022-09-27T11:02:31;99097.94;;;14.19;100.00
1207;BME280;593;53.184;8.216;2022-09-27T11:05:09;99097.59;;;14.21;100.00
1207;BME280;593;53.184;8.216;2022-09-27T11:07:49;99096.03;;;14.20;100.00
1207;BME280;593;53.184;8.216;2022-09-27T11:10:25;99096.47;;;14.22;100.00
1207;BME280;593;53.184;8.216;2022-09-27T11:16:05;99102.16;;;14.29;100.00
1207;BME280;593;53.184;8.216;2022-09-27T11:21:49;99098.53;;;14.25;100.00
1207;BME280;593;53.184;8.216;2022-09-27T11:24:30;99109.34;;;14.33;100.00
1207;BME280;593;53.184;8.216;2022-09-27T11:27:08;99105.47;;;14.34;100.00
1207;BME280;593;53.184;8.216;2022-09-27T11:35:36;99118.56;;;14.41;100.00
1207;BME280;593;53.184;8.216;2022-09-27T11:38:31;99113.56;;;14.43;100.00
1207;BME280;593;53.184;8.216;2022-09-27T11:55:02;99115.81;;;14.53;100.00
1207;BME280;593;53.184;8.216;2022-09-27T11:57:56;99113.53;;;14.55;100.00
1207;BME280;593;53.184;8.216;2022-09-27T12:11:25;99103.22;;;14.64;100.00
1207;BME280;593;53.184;8.216;2022-09-27T12:16:30;99093.06;;;14.64;100.00
1207;BME280;593;53.184;8.216;2022-09-27T12:18:58;99090.78;;;14.66;100.00
1207;BME280;593;53.184;8.216;2022-09-27T12:21:26;99091.22;;;14.68;100.00
1207;BME280;593;53.184;8.216;2022-09-27T12:23:55;99106.97;;;14.71;100.00
1207;BME280;593;53.184;8.216;2022-09-27T12:26:37;99113.31;;;14.75;100.00
1207;BME280;593;53.184;8.216;2022-09-27T12:29:14;99115.72;;;14.77;100.00
1207;BME280;593;53.184;8.216;2022-09-27T12:31:51;99116.16;;;14.79;100.00
1207;BME280;593;53.184;8.216;2022-09-27T12:34:27;99120.50;;;14.80;100.00
1207;BME280;593;53.184;8.216;2022-09-27T12:37:18;99122.88;;;14.82;100.00
1207;BME280;593;53.184;8.216;2022-09-27T12:39:55;99127.56;;;14.81;100.00
1207;BME280;593;53.184;8.216;2022-09-27T12:42:29;99128.38;;;14.82;100.00
1207;BME280;593;53.184;8.216;2022-09-27T12:44:55;99122.44;;;14.80;100.00
1207;BME280;593;53.184;8.216;2022-09-27T12:50:07;99128.72;;;14.80;100.00
1207;BME280;593;53.184;8.216;2022-09-27T12:52:39;99127.47;;;14.77;100.00
1207;BME280;593;53.184;8.216;2022-09-27T13:09:19;99137.88;;;14.72;100.00
1207;BME280;593;53.184;8.216;2022-09-27T13:14:24;99138.66;;;14.72;100.00
1207;BME280;593;53.184;8.216;2022-09-27T13:16:50;99140.59;;;14.72;100.00
1207;BME280;593;53.184;8.216;2022-09-27T13:22:00;99136.25;;;14.71;100.00
1207;BME280;593;53.184;8.216;2022-09-27T13:35:34;99148.81;;;14.72;100.00
1207;BME280;593;53.184;8.216;2022-09-27T13:38:01;99145.28;;;14.71;100.00
1207;BME280;593;53.184;8.216;2022-09-27T13:40:33;99142.09;;;14.69;100.00
1207;BME280;593;53.184;8.216;2022-09-27T13:45:54;99148.47;;;14.73;100.00
1207;BME280;593;53.184;8.216;2022-09-27T13:53:40;99144.91;;;14.73;100.00
1207;BME280;593;53.184;8.216;2022-09-27T13:59:12;99142.28;;;14.76;100.00
1207;BME280;593;53.184;8.216;2022-09-27T14:01:45;99139.19;;;14.78;100.00
1207;BME280;593;53.184;8.216;2022-09-27T14:04:30;99142.41;;;14.80;100.00
1207;BME280;593;53.184;8.216;2022-09-27T14:07:01;99144.09;;;14.85;100.00
1207;BME280;593;53.184;8.216;2022-09-27T14:09:30;99136.69;;;14.85;100.00
1207;BME280;593;53.184;8.216;2022-09-27T14:11:59;99128.91;;;14.87;100.00
1207;BME280;593;53.184;8.216;2022-09-27T14:14:28;99140.50;;;14.96;100.00
1207;BME280;593;53.184;8.216;2022-09-27T14:16:57;99134.44;;;15.03;100.00
1207;BME280;593;53.184;8.216;2022-09-27T14:19:24;99138.06;;;15.07;100.00
1207;BME280;593;53.184;8.216;2022-09-27T14:21:53;99142.84;;;15.10;100.00
1207;BME280;593;53.184;8.216;2022-09-27T14:32:25;99145.38;;;15.30;100.00
1207;BME280;593;53.184;8.216;2022-09-27T14:38:01;99151.03;;;15.37;100.00
1207;BME280;593;53.184;8.216;2022-09-27T14:40:27;99140.53;;;15.39;100.00
1207;BME280;593;53.184;8.216;2022-09-27T14:43:02;99144.94;;;15.44;100.00
1207;BME280;593;53.184;8.216;2022-09-27T14:45:35;99151.22;;;15.45;100.00
1207;BME280;593;53.184;8.216;2022-09-27T14:48:21;99159.59;;;15.48;100.00
1207;BME280;593;53.184;8.216;2022-09-27T14:53:22;99149.06;;;15.50;100.00
1207;BME280;593;53.184;8.216;2022-09-27T14:55:48;99158.59;;;15.56;100.00
1207;BME280;593;53.184;8.216;2022-09-27T14:58:14;99162.94;;;15.57;100.00
1207;BME280;593;53.184;8.216;2022-09-27T15:00:44;99164.09;;;15.56;100.00
1207;BME280;593;53.184;8.216;2022-09-27T15:03:18;99163.38;;;15.59;100.00
1207;BME280;593;53.184;8.216;2022-09-27T15:05:45;99172.41;;;15.60;100.00
1207;BME280;593;53.184;8.216;2022-09-27T15:08:11;99177.88;;;15.60;100.00
1207;BME280;593;53.184;8.216;2022-09-27T15:10:39;99163.38;;;15.59;100.00
1207;BME280;593;53.184;8.216;2022-09-27T15:13:05;99166.50;;;15.58;100.00
1207;BME280;593;53.184;8.216;2022-09-27T15:15:36;99166.94;;;15.60;100.00
1207;BME280;593;53.184;8.216;2022-09-27T15:18:43;99170.00;;;15.58;100.00
1207;BME280;593;53.184;8.216;2022-09-27T15:21:12;99168.00;;;15.55;100.00
1207;BME280;593;53.184;8.216;2022-09-27T15:23:42;99173.81;;;15.54;100.00
1207;BME280;593;53.184;8.216;2022-09-27T15:28:48;99162.31;;;15.48;100.00
1207;BME280;593;53.184;8.216;2022-09-27T15:31:14;99163.31;;;15.43;100.00
1207;BME280;593;53.184;8.216;2022-09-27T15:33:41;99171.09;;;15.41;100.00
1207;BME280;593;53.184;8.216;2022-09-27T15:36:09;99171.91;;;15.42;100.00
1207;BME280;593;53.184;8.216;2022-09-27T15:38:38;99172.59;;;15.39;100.00
1207;BME280;593;53.184;8.216;2022-09-27T15:41:18;99176.03;;;15.36;100.00
1207;BME280;593;53.184;8.216;2022-09-27T15:43:45;99184.19;;;15.32;100.00
1207;BME280;593;53.184;8.216;2022-09-27T15:46:40;99183.75;;;15.30;100.00
1207;BME280;593;53.184;8.216;2022-09-27T15:51:51;99185.94;;;15.25;100.00
1207;BME280;593;53.184;8.216;2022-09-27T15:54:21;99183.44;;;15.20;100.00
1207;BME280;593;53.184;8.216;2022-09-27T15:56:48;99195.53;;;15.19;100.00
1207;BME280;593;53.184;8.216;2022-09-27T15:59:26;99190.75;;;15.16;100.00
1207;BME280;593;53.184;8.216;2022-09-27T16:01:57;99194.19;;;15.13;100.00
1207;BME280;593;53.184;8.216;2022-09-27T16:04:23;99192.47;;;15.08;100.00
1207;BME280;593;53.184;8.216;2022-09-27T16:06:50;99194.78;;;15.06;100.00
1207;BME280;593;53.184;8.216;2022-09-27T16:09:17;99203.25;;;15.01;100.00
1207;BME280;593;53.184;8.216;2022-09-27T16:11:47;99202.44;;;15.01;100.00
1207;BME280;593;53.184;8.216;2022-09-27T16:14:14;99201.91;;;14.95;100.00
1207;BME280;593;53.184;8.216;2022-09-27T16:16:47;99186.66;;;14.82;100.00
1207;BME280;593;53.184;8.216;2022-09-27T16:19:13;99205.91;;;14.86;100.00
1207;BME280;593;53.184;8.216;2022-09-27T16:21:39;99206.94;;;14.81;100.00
1207;BME280;593;53.184;8.216;2022-09-27T16:24:07;99198.97;;;14.76;100.00
1207;BME280;593;53.184;8.216;2022-09-27T16:26:32;99199.22;;;14.71;100.00
1207;BME280;593;53.184;8.216;2022-09-27T16:28:58;99196.72;;;14.66;100.00
1207;BME280;593;53.184;8.216;2022-09-27T16:31:23;99201.19;;;14.58;100.00